Time;durP1;ratioP1;P1;durP2;ratioP2;P2;SDS_P1;SDS_P2;PMS_P1;PMS_P2;Temp;Humidity;BMP_temperature;BMP_pressure;BME280_temperature;BME280_humidity;BME280_pressure;Samples;Min_cycle;Max_cycle;Signal;HPM_P1;HPM_P2
2024/01/19 00:00:50;;;;;;;;;;;;;;;-4.28;57.71;95016.81;5023825;28;20394;-79
2024/01/19 00:03:16;;;;;;;;;;;;;;;-4.47;59.59;95010.19;5030363;28;19942;-77
2024/01/19 00:05:41;;;;;;;;;;;;;;;-4.00;58.39;95023.63;5026078;28;20015;-78
2024/01/19 00:08:06;;;;;;;;;;;;;;;-3.76;57.75;95019.47;5025110;28;20367;-79
2024/01/19 00:10:32;;;;;;;;;;;;;;;-4.13;57.53;95026.19;5035555;28;20490;-78
2024/01/19 00:12:58;;;;;;;;;;;;;;;-3.97;57.06;95026.00;5043273;28;20424;-79
2024/01/19 00:15:23;;;;;;;;;;;;;;;-4.03;57.13;95036.81;5025598;28;20114;-79
2024/01/19 00:17:48;;;;;;;;;;;;;;;-4.51;57.09;95030.38;5015976;28;20461;-79
2024/01/19 00:20:13;;;;;;;;;;;;;;;-4.31;58.04;95038.63;5023075;28;20487;-79
2024/01/19 00:22:39;;;;;;;;;;;;;;;-4.16;57.66;95036.78;5023671;28;20420;-78
2024/01/19 00:25:04;;;;;;;;;;;;;;;-4.12;57.42;95040.84;5022583;28;19968;-77
2024/01/19 00:27:29;;;;;;;;;;;;;;;-3.99;56.92;95040.03;5020121;28;20173;-78
2024/01/19 00:29:55;;;;;;;;;;;;;;;-4.19;57.18;95042.19;5021033;28;20441;-78
2024/01/19 00:32:20;;;;;;;;;;;;;;;-3.86;57.78;95040.91;5020398;28;19978;-79
2024/01/19 00:34:45;;;;;;;;;;;;;;;-3.79;59.14;95044.75;5002459;28;20038;-78
2024/01/19 00:37:11;;;;;;;;;;;;;;;-3.77;57.63;95052.44;5022057;28;19973;-78
2024/01/19 00:39:36;;;;;;;;;;;;;;;-4.45;56.43;95052.53;5019872;28;19971;-80
2024/01/19 00:42:01;;;;;;;;;;;;;;;-4.40;57.15;95058.25;5021557;28;20053;-78
2024/01/19 00:44:27;;;;;;;;;;;;;;;-4.85;57.32;95066.28;5024060;28;20021;-79
2024/01/19 00:46:52;;;;;;;;;;;;;;;-5.37;58.61;95076.34;5020601;28;20344;-80
2024/01/19 00:49:17;;;;;;;;;;;;;;;-5.16;58.68;95081.16;5023707;28;19971;-79
2024/01/19 00:51:42;;;;;;;;;;;;;;;-5.22;58.88;95079.75;5024516;28;20297;-78
2024/01/19 00:54:08;;;;;;;;;;;;;;;-5.26;57.93;95086.88;5020259;28;19973;-78
2024/01/19 00:56:33;;;;;;;;;;;;;;;-5.46;58.31;95080.31;5018824;28;20200;-79
2024/01/19 00:58:58;;;;;;;;;;;;;;;-5.37;58.31;95092.72;5024901;28;19974;-78
2024/01/19 01:01:23;;;;;;;;;;;;;;;-5.09;57.21;95085.84;5017645;28;20482;-78
2024/01/19 01:03:49;;;;;;;;;;;;;;;-5.04;57.11;95092.53;5020524;28;20133;-78
2024/01/19 01:06:14;;;;;;;;;;;;;;;-5.09;56.47;95093.66;5018407;28;19953;-78
2024/01/19 01:08:39;;;;;;;;;;;;;;;-5.22;56.73;95093.59;5025293;28;19981;-79
2024/01/19 01:11:05;;;;;;;;;;;;;;;-5.59;56.73;95098.38;5017953;28;19953;-80
2024/01/19 01:13:30;;;;;;;;;;;;;;;-5.68;56.55;95099.72;5016650;28;20293;-79
2024/01/19 01:15:56;;;;;;;;;;;;;;;-5.57;56.47;95093.94;5016438;28;20058;-79
2024/01/19 01:18:21;;;;;;;;;;;;;;;-5.66;56.85;95108.28;5023662;28;20004;-79
2024/01/19 01:20:46;;;;;;;;;;;;;;;-5.90;57.13;95113.97;5022999;28;19972;-78
2024/01/19 01:23:11;;;;;;;;;;;;;;;-6.14;57.86;95122.22;5026129;28;19959;-77
2024/01/19 01:25:37;;;;;;;;;;;;;;;-6.34;57.65;95123.34;5023509;28;20076;-78
2024/01/19 01:28:02;;;;;;;;;;;;;;;-6.78;57.88;95125.69;5018472;28;19981;-78
2024/01/19 01:30:27;;;;;;;;;;;;;;;-6.69;58.55;95123.53;5023740;28;20464;-78
2024/01/19 01:32:53;;;;;;;;;;;;;;;-6.40;57.60;95131.44;5018737;28;19977;-77
2024/01/19 01:35:18;;;;;;;;;;;;;;;-6.38;57.83;95138.19;5023250;28;19991;-78
2024/01/19 01:37:43;;;;;;;;;;;;;;;-6.22;57.79;95144.31;5023872;28;19993;-78
2024/01/19 01:40:10;;;;;;;;;;;;;;;-5.94;56.88;95148.78;5023377;28;19975;-80
2024/01/19 01:42:36;;;;;;;;;;;;;;;-6.09;57.15;95153.03;5021620;28;19976;-79
2024/01/19 01:45:01;;;;;;;;;;;;;;;-5.97;58.40;95157.53;5023546;28;20375;-77
2024/01/19 01:47:27;;;;;;;;;;;;;;;-6.14;57.36;95157.66;5018626;28;19950;-78
2024/01/19 01:49:53;;;;;;;;;;;;;;;-6.72;58.98;95168.53;5017795;28;20098;-80
2024/01/19 01:52:18;;;;;;;;;;;;;;;-6.60;58.74;95167.03;5023456;28;20033;-78
2024/01/19 01:54:43;;;;;;;;;;;;;;;-6.40;58.63;95163.38;5015034;28;19957;-78
2024/01/19 01:57:09;;;;;;;;;;;;;;;-6.31;58.29;95168.97;5020370;28;19975;-78
2024/01/19 01:59:34;;;;;;;;;;;;;;;-6.03;58.13;95172.59;5017701;28;19960;-77
2024/01/19 02:01:59;;;;;;;;;;;;;;;-5.94;56.92;95179.88;5018100;28;19980;-77
2024/01/19 02:04:25;;;;;;;;;;;;;;;-6.28;57.30;95187.75;5020439;28;20003;-78
2024/01/19 02:06:50;;;;;;;;;;;;;;;-6.29;57.12;95175.72;5023038;28;19953;-78
2024/01/19 02:09:16;;;;;;;;;;;;;;;-6.41;57.68;95185.03;5034777;28;19999;-78
2024/01/19 02:11:41;;;;;;;;;;;;;;;-6.75;59.03;95184.25;5019211;28;19969;-78
2024/01/19 02:14:09;;;;;;;;;;;;;;;-6.67;58.58;95184.66;5024369;28;19945;-78
2024/01/19 02:16:34;;;;;;;;;;;;;;;-6.28;58.35;95184.34;5020367;28;19975;-80
2024/01/19 02:19:00;;;;;;;;;;;;;;;-6.00;57.57;95190.59;5025648;28;19977;-77
2024/01/19 02:21:25;;;;;;;;;;;;;;;-6.01;57.24;95192.34;5020389;28;20074;-78
2024/01/19 02:23:53;;;;;;;;;;;;;;;-6.13;58.00;95191.28;5016979;28;20016;-78
2024/01/19 02:26:19;;;;;;;;;;;;;;;-6.36;58.45;95195.97;5019883;28;19960;-77
2024/01/19 02:28:44;;;;;;;;;;;;;;;-6.68;60.06;95198.53;5016839;28;20416;-78
2024/01/19 02:31:09;;;;;;;;;;;;;;;-6.99;60.73;95199.31;5019218;28;19969;-78
2024/01/19 02:33:34;;;;;;;;;;;;;;;-6.55;59.76;95197.88;5020580;28;20262;-79
2024/01/19 02:36:00;;;;;;;;;;;;;;;-6.39;58.98;95190.94;5018197;28;20186;-78
2024/01/19 02:38:25;;;;;;;;;;;;;;;-6.23;58.57;95182.34;5022699;28;19979;-78
2024/01/19 02:40:50;;;;;;;;;;;;;;;-6.32;58.73;95195.81;5009943;28;19974;-79
2024/01/19 02:43:15;;;;;;;;;;;;;;;-6.37;58.78;95196.91;5027716;28;20009;-78
2024/01/19 02:45:41;;;;;;;;;;;;;;;-6.48;59.25;95207.00;5026048;28;19983;-79
2024/01/19 02:48:06;;;;;;;;;;;;;;;-6.81;60.71;95207.84;5033903;28;19968;-79
2024/01/19 02:50:31;;;;;;;;;;;;;;;-6.58;59.74;95208.41;5018417;28;19963;-79
2024/01/19 02:52:57;;;;;;;;;;;;;;;-6.67;59.63;95205.38;5014580;28;19984;-79
2024/01/19 02:55:22;;;;;;;;;;;;;;;-6.58;59.52;95205.81;5027174;28;20315;-78
2024/01/19 02:57:47;;;;;;;;;;;;;;;-6.50;59.70;95206.22;5019324;28;20444;-78
2024/01/19 03:00:13;;;;;;;;;;;;;;;-6.74;59.63;95206.63;5023660;28;20287;-78
2024/01/19 03:02:38;;;;;;;;;;;;;;;-6.62;59.47;95203.38;5020938;28;19959;-79
2024/01/19 03:05:04;;;;;;;;;;;;;;;-6.49;59.19;95202.75;5027229;28;20460;-78
2024/01/19 03:07:29;;;;;;;;;;;;;;;-6.48;59.28;95201.81;5024330;28;19957;-79
2024/01/19 03:09:54;;;;;;;;;;;;;;;-5.98;57.99;95199.94;5020317;28;19989;-77
2024/01/19 03:12:19;;;;;;;;;;;;;;;-5.85;57.64;95210.47;5029647;28;20073;-78
2024/01/19 03:14:45;;;;;;;;;;;;;;;-5.73;57.29;95206.38;5026393;28;19994;-80
2024/01/19 03:17:10;;;;;;;;;;;;;;;-5.67;57.18;95212.97;5023132;28;20019;-78
2024/01/19 03:19:36;;;;;;;;;;;;;;;-5.86;57.82;95226.13;5027483;28;20023;-77
2024/01/19 03:22:01;;;;;;;;;;;;;;;-5.54;57.20;95222.63;5020133;28;19969;-79
2024/01/19 03:24:27;;;;;;;;;;;;;;;-5.51;56.67;95215.50;5026175;28;19964;-79
2024/01/19 03:26:52;;;;;;;;;;;;;;;-5.25;56.03;95214.91;5025581;28;20203;-79
2024/01/19 03:29:19;;;;;;;;;;;;;;;-5.05;55.54;95212.91;5028205;28;19965;-79
2024/01/19 03:31:46;;;;;;;;;;;;;;;-5.18;55.59;95218.81;5025621;28;19980;-78
2024/01/19 03:34:11;;;;;;;;;;;;;;;-5.28;56.18;95215.09;5029192;28;19972;-79
2024/01/19 03:36:36;;;;;;;;;;;;;;;-5.60;56.68;95209.06;5029052;28;20013;-78
2024/01/19 03:39:02;;;;;;;;;;;;;;;-5.57;56.71;95215.88;5026677;28;20557;-78
2024/01/19 03:41:27;;;;;;;;;;;;;;;-5.80;57.84;95209.38;5024897;28;19972;-78
2024/01/19 03:43:52;;;;;;;;;;;;;;;-5.80;57.96;95207.63;5022830;28;19951;-79
2024/01/19 03:46:17;;;;;;;;;;;;;;;-6.36;59.50;95213.25;5015750;28;19948;-77
2024/01/19 03:48:43;;;;;;;;;;;;;;;-6.09;58.79;95211.84;5015226;28;20262;-78
2024/01/19 03:51:08;;;;;;;;;;;;;;;-6.27;59.42;95217.97;5022151;28;20419;-78
2024/01/19 03:53:33;;;;;;;;;;;;;;;-6.27;59.45;95209.34;5014460;28;19983;-80
2024/01/19 03:55:59;;;;;;;;;;;;;;;-6.39;60.03;95224.63;5015693;28;20491;-78
2024/01/19 03:58:24;;;;;;;;;;;;;;;-6.59;61.13;95225.69;5023781;28;20435;-78
2024/01/19 04:00:49;;;;;;;;;;;;;;;-7.35;63.01;95229.56;5024959;28;19983;-78
2024/01/19 04:03:15;;;;;;;;;;;;;;;-7.15;62.59;95233.72;5023080;28;19955;-77
2024/01/19 04:05:40;;;;;;;;;;;;;;;-7.09;63.45;95230.84;5018615;28;20110;-78
2024/01/19 04:08:06;;;;;;;;;;;;;;;-7.25;64.12;95233.38;5010628;28;19978;-76
2024/01/19 04:10:31;;;;;;;;;;;;;;;-6.76;62.54;95244.72;5019491;28;19964;-79
2024/01/19 04:12:56;;;;;;;;;;;;;;;-7.07;63.46;95238.53;5017500;28;19973;-78
2024/01/19 04:15:21;;;;;;;;;;;;;;;-7.27;63.59;95230.84;5020811;28;20446;-80
2024/01/19 04:17:47;;;;;;;;;;;;;;;-7.72;65.93;95247.75;5015011;28;20001;-79
2024/01/19 04:20:12;;;;;;;;;;;;;;;-7.87;66.33;95250.16;5014018;28;19972;-77
2024/01/19 04:22:37;;;;;;;;;;;;;;;-7.69;66.56;95240.66;5024843;28;19966;-79
2024/01/19 04:25:02;;;;;;;;;;;;;;;-7.81;66.40;95252.41;5016856;28;20462;-78
2024/01/19 04:27:28;;;;;;;;;;;;;;;-7.76;66.23;95267.72;5016138;28;20511;-78
2024/01/19 04:29:53;;;;;;;;;;;;;;;-7.13;64.70;95253.44;5013090;28;20077;-79
2024/01/19 04:32:18;;;;;;;;;;;;;;;-6.89;63.67;95258.28;5018596;28;20170;-78
2024/01/19 04:34:44;;;;;;;;;;;;;;;-7.05;63.64;95257.41;5016594;28;19956;-77
2024/01/19 04:37:09;;;;;;;;;;;;;;;-6.97;63.60;95270.78;5015513;28;19981;-78
2024/01/19 04:39:34;;;;;;;;;;;;;;;-7.05;63.96;95271.19;5014825;28;20054;-80
2024/01/19 04:41:59;;;;;;;;;;;;;;;-7.05;64.50;95278.94;5024947;28;20483;-78
2024/01/19 04:44:25;;;;;;;;;;;;;;;-7.02;64.56;95275.38;5023056;28;19975;-76
2024/01/19 04:46:50;;;;;;;;;;;;;;;-6.99;64.52;95279.53;5020899;28;19958;-79
2024/01/19 04:49:15;;;;;;;;;;;;;;;-7.41;65.40;95285.03;5016639;28;19985;-80
2024/01/19 04:51:41;;;;;;;;;;;;;;;-6.99;65.25;95282.97;5019047;28;20005;-79
2024/01/19 04:54:06;;;;;;;;;;;;;;;-7.24;65.90;95281.59;5014143;28;19984;-78
2024/01/19 04:56:33;;;;;;;;;;;;;;;-6.87;65.54;95278.91;5019225;28;20046;-79
2024/01/19 04:58:58;;;;;;;;;;;;;;;-7.04;64.88;95274.59;5016432;28;20487;-79
2024/01/19 05:01:23;;;;;;;;;;;;;;;-6.99;65.39;95277.81;5021174;28;19967;-77
2024/01/19 05:03:49;;;;;;;;;;;;;;;-6.85;65.13;95278.84;5020513;28;20372;-77
2024/01/19 05:06:14;;;;;;;;;;;;;;;-6.95;64.76;95278.47;5019458;28;19999;-78
2024/01/19 05:08:39;;;;;;;;;;;;;;;-7.05;65.43;95284.13;5035321;28;19966;-78
2024/01/19 05:11:05;;;;;;;;;;;;;;;-6.90;64.77;95282.50;5016952;28;19949;-77
2024/01/19 05:13:30;;;;;;;;;;;;;;;-6.59;63.77;95285.25;5016910;28;19977;-80
2024/01/19 05:15:55;;;;;;;;;;;;;;;-6.93;64.98;95285.25;5017980;28;19962;-77
2024/01/19 05:18:21;;;;;;;;;;;;;;;-6.68;63.80;95284.00;5017877;28;20364;-77
2024/01/19 05:20:46;;;;;;;;;;;;;;;-6.48;63.15;95271.75;5020064;28;20130;-78
2024/01/19 05:23:11;;;;;;;;;;;;;;;-6.42;63.14;95281.78;5024855;28;19959;-77
2024/01/19 05:25:37;;;;;;;;;;;;;;;-6.78;63.83;95283.66;5021437;28;19965;-78
2024/01/19 05:28:02;;;;;;;;;;;;;;;-6.50;63.08;95276.16;5030299;28;20393;-79
2024/01/19 05:30:27;;;;;;;;;;;;;;;-6.81;63.26;95298.47;5022241;28;20109;-78
2024/01/19 05:32:53;;;;;;;;;;;;;;;-6.57;62.92;95286.03;5021097;28;20472;-77
2024/01/19 05:35:18;;;;;;;;;;;;;;;-6.49;62.35;95296.00;5017099;28;20234;-77
2024/01/19 05:37:43;;;;;;;;;;;;;;;-6.78;62.95;95298.34;5021480;28;20446;-78
2024/01/19 05:40:09;;;;;;;;;;;;;;;-7.11;63.84;95299.94;5019167;28;20095;-77
2024/01/19 05:42:34;;;;;;;;;;;;;;;-7.18;63.97;95294.25;5016937;28;19957;-78
2024/01/19 05:44:59;;;;;;;;;;;;;;;-7.19;62.96;95292.59;5024395;28;20078;-80
2024/01/19 05:47:24;;;;;;;;;;;;;;;-6.95;62.51;95297.44;5017937;28;20656;-79
2024/01/19 05:49:50;;;;;;;;;;;;;;;-7.00;62.89;95304.63;5025898;28;20166;-77
2024/01/19 05:52:15;;;;;;;;;;;;;;;-6.85;62.25;95313.34;5021418;28;19999;-78
2024/01/19 05:54:40;;;;;;;;;;;;;;;-6.95;62.91;95312.13;5018724;28;19962;-78
2024/01/19 05:57:06;;;;;;;;;;;;;;;-7.17;62.90;95323.56;5016206;28;20015;-78
2024/01/19 05:59:32;;;;;;;;;;;;;;;-7.53;64.19;95325.25;5023123;28;20050;-78
2024/01/19 06:01:58;;;;;;;;;;;;;;;-7.55;64.84;95325.34;5015262;28;20546;-78
2024/01/19 06:04:23;;;;;;;;;;;;;;;-7.37;64.64;95324.53;5016079;28;19967;-79
2024/01/19 06:06:48;;;;;;;;;;;;;;;-7.16;63.80;95327.81;5021478;28;20051;-77
2024/01/19 06:09:13;;;;;;;;;;;;;;;-7.43;64.70;95323.91;5016114;28;20515;-79
2024/01/19 06:11:39;;;;;;;;;;;;;;;-7.72;65.17;95339.06;5023796;28;20096;-79
2024/01/19 06:14:04;;;;;;;;;;;;;;;-7.98;66.82;95353.19;5022146;28;20024;-78
2024/01/19 06:16:29;;;;;;;;;;;;;;;-8.06;66.92;95374.19;5017317;28;20017;-77
2024/01/19 06:18:54;;;;;;;;;;;;;;;-8.53;68.74;95360.72;5022609;28;20011;-77
2024/01/19 06:21:20;;;;;;;;;;;;;;;-8.90;70.76;95368.31;5019862;28;20600;-78
2024/01/19 06:23:45;;;;;;;;;;;;;;;-8.89;71.71;95367.41;5030398;28;19976;-77
2024/01/19 06:26:10;;;;;;;;;;;;;;;-9.24;72.87;95378.25;5025904;28;19963;-78
2024/01/19 06:28:36;;;;;;;;;;;;;;;-9.32;73.67;95372.56;5015852;28;20499;-79
2024/01/19 06:31:05;;;;;;;;;;;;;;;-8.96;72.62;95378.88;5018770;28;20018;-78
2024/01/19 06:33:30;;;;;;;;;;;;;;;-8.95;72.35;95386.56;5021086;28;19989;-78
2024/01/19 06:35:56;;;;;;;;;;;;;;;-8.96;72.46;95379.72;5018765;28;20336;-78
2024/01/19 06:38:21;;;;;;;;;;;;;;;-8.74;71.78;95375.41;5017626;28;20460;-77
2024/01/19 06:40:47;;;;;;;;;;;;;;;-8.44;70.87;95386.16;5019710;28;19991;-77
2024/01/19 06:43:12;;;;;;;;;;;;;;;-8.10;69.45;95393.31;5022129;28;19997;-78
2024/01/19 06:45:37;;;;;;;;;;;;;;;-8.02;69.36;95395.59;5023312;28;20413;-78
2024/01/19 06:48:03;;;;;;;;;;;;;;;-7.75;68.33;95403.81;5026587;28;19987;-79
2024/01/19 06:50:28;;;;;;;;;;;;;;;-7.47;67.50;95402.56;5022640;28;20452;-78
2024/01/19 06:52:53;;;;;;;;;;;;;;;-6.98;65.98;95408.06;5028292;28;19982;-78
2024/01/19 06:55:19;;;;;;;;;;;;;;;-7.02;65.77;95402.19;5016966;28;19974;-78
2024/01/19 06:57:44;;;;;;;;;;;;;;;-6.70;64.28;95412.72;5027616;28;20063;-77
2024/01/19 07:00:09;;;;;;;;;;;;;;;-6.73;64.75;95412.88;5017604;28;20034;-78
2024/01/19 07:02:35;;;;;;;;;;;;;;;-6.66;64.35;95410.84;5025173;28;20040;-78
2024/01/19 07:05:00;;;;;;;;;;;;;;;-6.49;63.96;95416.00;5022716;28;19983;-77
2024/01/19 07:07:25;;;;;;;;;;;;;;;-7.16;66.29;95433.91;5012611;28;19962;-78
2024/01/19 07:09:50;;;;;;;;;;;;;;;-7.21;66.43;95433.31;5023772;28;20096;-78
2024/01/19 07:12:16;;;;;;;;;;;;;;;-6.95;66.24;95431.22;5027934;28;19973;-79
2024/01/19 07:14:42;;;;;;;;;;;;;;;-7.26;66.41;95441.28;5021746;28;20475;-78
2024/01/19 07:17:07;;;;;;;;;;;;;;;-6.73;65.54;95438.75;5027470;28;20016;-77
2024/01/19 07:19:32;;;;;;;;;;;;;;;-6.60;64.57;95459.72;5013513;28;20080;-77
2024/01/19 07:21:57;;;;;;;;;;;;;;;-6.68;64.80;95449.75;5015127;28;20042;-78
2024/01/19 07:24:23;;;;;;;;;;;;;;;-6.55;64.66;95462.94;5015279;28;20163;-78
2024/01/19 07:26:48;;;;;;;;;;;;;;;-6.80;65.21;95465.91;5020586;28;20254;-78
2024/01/19 07:29:13;;;;;;;;;;;;;;;-6.45;64.27;95465.91;5016358;28;19972;-78
2024/01/19 07:31:38;;;;;;;;;;;;;;;-6.54;64.31;95454.25;5020563;28;19953;-80
2024/01/19 07:34:04;;;;;;;;;;;;;;;-6.05;63.01;95457.03;5016789;28;20092;-78
2024/01/19 07:36:29;;;;;;;;;;;;;;;-6.13;62.51;95460.00;5012494;28;20272;-77
2024/01/19 07:38:54;;;;;;;;;;;;;;;-6.29;63.51;95472.94;5013910;28;20276;-78
2024/01/19 07:41:21;;;;;;;;;;;;;;;-6.45;63.63;95473.69;5015916;28;20403;-77
2024/01/19 07:43:47;;;;;;;;;;;;;;;-6.13;62.71;95465.19;5017463;28;19950;-78
2024/01/19 07:46:14;;;;;;;;;;;;;;;-6.31;63.48;95477.34;5021715;28;20404;-79
2024/01/19 07:48:39;;;;;;;;;;;;;;;-6.24;62.83;95482.16;5018523;28;20511;-80
2024/01/19 07:51:04;;;;;;;;;;;;;;;-5.96;62.30;95485.06;5024594;28;19949;-79
2024/01/19 07:53:31;;;;;;;;;;;;;;;-5.72;61.58;95482.13;5016732;28;19976;-78
2024/01/19 07:55:56;;;;;;;;;;;;;;;-5.88;62.09;95488.09;5013010;28;19940;-78
2024/01/19 07:58:22;;;;;;;;;;;;;;;-5.90;62.23;95495.16;5016310;28;19981;-77
2024/01/19 08:00:47;;;;;;;;;;;;;;;-5.72;61.48;95497.69;5013062;28;19961;-77
2024/01/19 08:03:13;;;;;;;;;;;;;;;-5.77;61.76;95502.28;5015167;28;19954;-78
2024/01/19 08:05:38;;;;;;;;;;;;;;;-5.75;61.39;95509.06;5010761;28;19985;-78
2024/01/19 08:08:03;;;;;;;;;;;;;;;-5.79;61.73;95509.28;5005752;28;20895;-79
2024/01/19 08:10:31;;;;;;;;;;;;;;;-5.90;62.39;95510.72;5017457;28;20165;-77
2024/01/19 08:12:59;;;;;;;;;;;;;;;-5.89;61.65;95514.97;5026036;28;19982;-78
2024/01/19 08:15:24;;;;;;;;;;;;;;;-5.63;61.79;95511.94;5014809;28;20080;-78
2024/01/19 08:17:49;;;;;;;;;;;;;;;-5.59;61.01;95524.69;5017193;28;20079;-79
2024/01/19 08:20:15;;;;;;;;;;;;;;;-6.04;62.71;95528.72;5014867;28;20238;-77
2024/01/19 08:22:40;;;;;;;;;;;;;;;-5.89;61.99;95530.53;5025336;28;20421;-79
2024/01/19 08:25:05;;;;;;;;;;;;;;;-6.27;63.52;95526.34;5014075;28;20254;-77
2024/01/19 08:27:31;;;;;;;;;;;;;;;-6.21;63.60;95537.31;5018710;28;19990;-76
2024/01/19 08:29:56;;;;;;;;;;;;;;;-6.23;64.71;95532.22;5014513;28;19969;-77
2024/01/19 08:32:24;;;;;;;;;;;;;;;-6.25;63.87;95536.66;5026044;28;20419;-78
2024/01/19 08:34:49;;;;;;;;;;;;;;;-6.49;64.95;95555.06;5018241;28;19960;-78
2024/01/19 08:37:15;;;;;;;;;;;;;;;-6.45;65.66;95560.94;5017938;28;20491;-76
2024/01/19 08:39:40;;;;;;;;;;;;;;;-6.08;64.31;95556.56;5016582;28;19972;-78
2024/01/19 08:42:06;;;;;;;;;;;;;;;-5.76;63.44;95559.28;5024554;28;19949;-78
2024/01/19 08:44:31;;;;;;;;;;;;;;;-5.47;62.99;95559.53;5025776;28;20003;-78
2024/01/19 08:46:57;;;;;;;;;;;;;;;-4.88;61.40;95553.00;5028105;28;20345;-79
2024/01/19 08:49:23;;;;;;;;;;;;;;;-4.72;60.75;95560.78;5012210;28;19999;-78
2024/01/19 08:51:50;;;;;;;;;;;;;;;-4.53;59.03;95570.16;5026393;28;19986;-77
2024/01/19 08:54:16;;;;;;;;;;;;;;;-5.11;60.58;95577.59;5026585;28;20177;-78
2024/01/19 08:56:41;;;;;;;;;;;;;;;-4.87;59.98;95578.03;5018545;28;19971;-77
2024/01/19 08:59:06;;;;;;;;;;;;;;;-4.83;59.58;95569.16;5029952;28;20300;-78
2024/01/19 09:01:33;;;;;;;;;;;;;;;-4.56;59.42;95581.56;5031556;28;20586;-78
2024/01/19 09:03:59;;;;;;;;;;;;;;;-4.61;59.64;95577.53;5025313;28;19966;-79
2024/01/19 09:06:24;;;;;;;;;;;;;;;-4.90;59.21;95592.97;5028669;28;19951;-78
2024/01/19 09:08:49;;;;;;;;;;;;;;;-5.29;60.86;95592.38;5031248;28;20389;-77
2024/01/19 09:11:14;;;;;;;;;;;;;;;-5.14;60.92;95599.38;5016364;28;19952;-79
2024/01/19 09:13:40;;;;;;;;;;;;;;;-5.37;61.53;95603.19;5023209;28;19974;-78
2024/01/19 09:16:08;;;;;;;;;;;;;;;-4.93;59.45;95619.09;5034004;28;20358;-78
2024/01/19 09:18:36;;;;;;;;;;;;;;;-4.72;59.66;95617.13;5023538;28;19964;-76
2024/01/19 09:21:02;;;;;;;;;;;;;;;-4.72;59.13;95620.53;5029536;28;19961;-77
2024/01/19 09:23:27;;;;;;;;;;;;;;;-5.03;60.12;95616.97;5022491;28;20345;-77
2024/01/19 09:25:52;;;;;;;;;;;;;;;-5.05;60.29;95623.16;5028597;28;19969;-76
2024/01/19 09:28:18;;;;;;;;;;;;;;;-4.57;59.10;95626.69;5035989;28;20063;-76
2024/01/19 09:30:43;;;;;;;;;;;;;;;-4.38;58.88;95625.63;5036289;28;19979;-76
2024/01/19 09:33:09;;;;;;;;;;;;;;;-4.76;59.65;95633.78;5024265;28;19963;-77
2024/01/19 09:35:34;;;;;;;;;;;;;;;-4.86;60.02;95626.47;5028267;28;20745;-76
2024/01/19 09:37:59;;;;;;;;;;;;;;;-5.08;60.95;95630.22;5023415;28;19964;-76
2024/01/19 09:40:24;;;;;;;;;;;;;;;-5.29;61.35;95639.09;5023881;28;20059;-77
2024/01/19 09:42:53;;;;;;;;;;;;;;;-5.14;61.27;95643.50;5024936;28;20243;-75
2024/01/19 09:45:19;;;;;;;;;;;;;;;-5.14;61.03;95640.91;5017855;28;20776;-76
2024/01/19 09:47:56;;;;;;;;;;;;;;;-4.97;61.13;95642.63;5023643;28;19993;-75
2024/01/19 09:50:23;;;;;;;;;;;;;;;-4.95;60.50;95638.19;5019261;28;19937;-76
2024/01/19 09:52:56;;;;;;;;;;;;;;;-5.07;61.42;95644.88;5014862;28;19992;-77
2024/01/19 09:55:22;;;;;;;;;;;;;;;-5.52;63.35;95646.31;5016755;28;19978;-76
2024/01/19 09:57:47;;;;;;;;;;;;;;;-5.60;62.58;95668.28;5017024;28;19966;-76
2024/01/19 10:00:13;;;;;;;;;;;;;;;-6.09;65.03;95673.28;5014980;28;19994;-77
2024/01/19 10:02:41;;;;;;;;;;;;;;;-5.82;63.62;95672.88;5020291;28;20248;-72
2024/01/19 10:05:07;;;;;;;;;;;;;;;-5.56;63.43;95681.09;5029074;28;20131;-72
2024/01/19 10:07:32;;;;;;;;;;;;;;;-5.62;63.53;95690.88;5027621;28;19997;-72
2024/01/19 10:09:57;;;;;;;;;;;;;;;-6.46;65.60;95694.81;5025293;28;19968;-72
2024/01/19 10:12:22;;;;;;;;;;;;;;;-6.40;65.81;95694.53;5016050;28;20191;-72
2024/01/19 10:14:48;;;;;;;;;;;;;;;-5.98;65.35;95696.94;5020353;28;19973;-72
2024/01/19 10:17:14;;;;;;;;;;;;;;;-5.63;64.47;95697.00;5016425;28;19971;-72
2024/01/19 10:19:39;;;;;;;;;;;;;;;-5.05;62.64;95695.88;5022807;28;20044;-72
2024/01/19 10:22:23;;;;;;;;;;;;;;;-5.24;62.49;95707.19;5014297;28;20063;-72
2024/01/19 10:25:18;;;;;;;;;;;;;;;-5.24;61.56;95705.47;5024778;28;19960;-71
2024/01/19 10:27:46;;;;;;;;;;;;;;;-5.69;63.39;95720.63;5032857;28;20129;-73
2024/01/19 10:30:21;;;;;;;;;;;;;;;-5.38;62.78;95713.09;5033502;28;20230;-72
2024/01/19 10:32:48;;;;;;;;;;;;;;;-5.22;62.58;95707.97;5018672;28;20718;-72
2024/01/19 10:35:20;;;;;;;;;;;;;;;-5.86;64.22;95719.69;5033105;28;19953;-72
2024/01/19 10:37:45;;;;;;;;;;;;;;;-5.48;62.84;95731.72;5022734;28;19988;-72
2024/01/19 10:40:20;;;;;;;;;;;;;;;-5.09;62.10;95719.41;5025004;28;20518;-72
2024/01/19 10:42:46;;;;;;;;;;;;;;;-5.41;62.10;95724.47;5023068;28;20097;-73
2024/01/19 10:45:19;;;;;;;;;;;;;;;-5.63;63.27;95732.47;5024488;28;19966;-72
2024/01/19 10:47:45;;;;;;;;;;;;;;;-5.41;62.69;95728.84;5020685;28;20393;-73
2024/01/19 10:50:11;;;;;;;;;;;;;;;-5.43;62.89;95734.09;5016441;28;20025;-72
2024/01/19 10:52:38;;;;;;;;;;;;;;;-5.02;62.18;95735.53;5018554;28;20433;-71
2024/01/19 10:55:03;;;;;;;;;;;;;;;-5.28;62.61;95729.03;5015268;28;19955;-72
2024/01/19 10:57:29;;;;;;;;;;;;;;;-5.30;62.66;95730.88;5015107;28;19976;-72
2024/01/19 10:59:54;;;;;;;;;;;;;;;-5.00;61.31;95725.06;5016352;28;19982;-72
2024/01/19 11:02:19;;;;;;;;;;;;;;;-5.04;61.66;95736.50;5033738;28;20212;-72
2024/01/19 11:04:44;;;;;;;;;;;;;;;-5.25;62.00;95742.72;5019921;28;20210;-72
2024/01/19 11:07:10;;;;;;;;;;;;;;;-5.39;62.93;95737.38;5013144;28;20423;-71
2024/01/19 11:09:35;;;;;;;;;;;;;;;-5.31;62.73;95729.22;5024420;28;20016;-72
2024/01/19 11:12:00;;;;;;;;;;;;;;;-5.12;62.62;95736.91;5017404;28;19946;-72
2024/01/19 11:14:26;;;;;;;;;;;;;;;-4.86;61.55;95734.75;5019633;28;19942;-73
2024/01/19 11:16:52;;;;;;;;;;;;;;;-5.31;61.99;95742.19;5014938;28;19964;-73
2024/01/19 11:19:17;;;;;;;;;;;;;;;-5.13;62.18;95745.63;5015922;28;20043;-72
2024/01/19 11:21:43;;;;;;;;;;;;;;;-4.64;60.43;95742.25;5026399;28;19972;-73
2024/01/19 11:24:08;;;;;;;;;;;;;;;-4.34;60.29;95735.53;5022593;28;20443;-72
2024/01/19 11:26:37;;;;;;;;;;;;;;;-5.08;61.75;95747.06;5036474;28;19979;-72
2024/01/19 11:29:18;;;;;;;;;;;;;;;-4.82;61.11;95747.47;5025270;28;22020;-74
2024/01/19 11:31:43;;;;;;;;;;;;;;;-4.02;59.01;95750.28;5020351;28;19941;-77
2024/01/19 11:34:08;;;;;;;;;;;;;;;-3.91;58.88;95753.13;5015758;28;20346;-77
2024/01/19 11:36:35;;;;;;;;;;;;;;;-3.90;58.31;95754.84;5020093;28;19970;-76
2024/01/19 11:39:00;;;;;;;;;;;;;;;-4.14;58.35;95757.84;5015942;28;19961;-78
2024/01/19 11:41:31;;;;;;;;;;;;;;;-4.16;58.12;95759.69;5019097;28;20010;-76
2024/01/19 11:43:57;;;;;;;;;;;;;;;-4.10;58.86;95755.91;5028394;28;19982;-75
2024/01/19 11:46:51;;;;;;;;;;;;;;;-4.57;59.11;95769.63;5023968;28;19968;-78
2024/01/19 11:49:29;;;;;;;;;;;;;;;-4.55;59.92;95766.94;5015544;28;20441;-76
2024/01/19 11:51:54;;;;;;;;;;;;;;;-4.05;59.07;95772.94;5017627;28;19943;-76
2024/01/19 11:54:26;;;;;;;;;;;;;;;-3.96;57.96;95774.22;5015358;28;19952;-75
2024/01/19 11:56:51;;;;;;;;;;;;;;;-4.75;59.75;95786.16;5014630;28;20424;-78
2024/01/19 11:59:16;;;;;;;;;;;;;;;-4.75;60.07;95783.56;5017317;28;20249;-77
2024/01/19 12:01:42;;;;;;;;;;;;;;;-5.07;61.31;95790.28;5013796;28;20057;-76
2024/01/19 12:04:07;;;;;;;;;;;;;;;-4.98;60.49;95789.00;5015064;28;19969;-78
2024/01/19 12:06:32;;;;;;;;;;;;;;;-4.84;61.05;95787.44;5030752;28;20062;-75
2024/01/19 12:08:59;;;;;;;;;;;;;;;-4.85;60.42;95794.38;5018567;28;20097;-77
2024/01/19 12:11:24;;;;;;;;;;;;;;;-4.71;59.41;95780.72;5025003;28;20273;-76
2024/01/19 12:13:50;;;;;;;;;;;;;;;-4.38;59.81;95788.59;5024890;28;20663;-78
2024/01/19 12:16:18;;;;;;;;;;;;;;;-4.36;58.87;95794.53;5021621;28;19961;-78
2024/01/19 12:18:44;;;;;;;;;;;;;;;-4.16;57.98;95793.50;5017573;28;20073;-75
2024/01/19 12:21:09;;;;;;;;;;;;;;;-3.92;57.95;95788.75;5021498;28;20515;-76
2024/01/19 12:23:35;;;;;;;;;;;;;;;-3.64;57.95;95786.38;5017117;28;19949;-78
2024/01/19 12:26:00;;;;;;;;;;;;;;;-4.07;56.60;95787.78;5024212;28;20065;-77
2024/01/19 12:28:26;;;;;;;;;;;;;;;-4.39;58.40;95795.53;5017189;28;19983;-76
2024/01/19 12:30:52;;;;;;;;;;;;;;;-3.81;58.01;95792.50;5018668;28;19990;-75
2024/01/19 12:33:24;;;;;;;;;;;;;;;-3.43;56.55;95781.72;5018365;28;20601;-76
2024/01/19 12:35:49;;;;;;;;;;;;;;;-3.23;55.60;95778.94;5018529;28;19939;-76
2024/01/19 12:38:14;;;;;;;;;;;;;;;-3.66;56.25;95783.03;5018544;28;19966;-77
2024/01/19 12:40:40;;;;;;;;;;;;;;;-4.09;57.74;95781.00;5024748;28;20070;-76